Litchfield, Michigan
Current Conditions -  °F | °C
As of 2:35 PM on Tuesday 21 Oct 2014 (Local Time) from KJYM Reporting Station
Overcast Overcast  
Wind Chill: 42°   Ceiling: 2500
Heat Index: 47°   Visibility: 10mi
Dew Point: 40°   Wind: 12mph
Humidity: 74%   Direction: 10°N
Pressure: 30.09"   Gusts: NA
Location:  42.04°N, 84.76°W
Report Text: KJYM 211835Z AUTO 01010KT 10SM OVC025 09/04 A3009 RMK AO2 T00860042
Loading
Personal Weather Stations






























Interactive Weather Map
Tropical Storm Tracking
New forecast layout! Learn more

10-Day Weather Forecast

Advertisements
Track Severe Weather on mobile